Список аэропортов
Фактическая погода:

21 августа, 07:00
Температура: +18°C (+18.0*)
Ветер: восточный 3 м/с
Давление: *766 мм
несуществ. обл. тонкий туман
Время (МСК)Темп. СВетерВлажностьДавлениеОблачностьОсадки
03:00+15ЮВ, 1 м/с97%1021 гПамалооблачно
04:00+14В, 2 м/с98%1021 гПамалооблачно
05:00+14В, 2 м/с99%1021 гПас прояснениями
06:00+14ЮВ, 2 м/с97%1021 гПамалооблачно
07:00+15ЮВ, 2 м/с89%1020 гПаясно
08:00+17ЮВ, 2 м/с79%1020 гПаясно
09:00+20ЮВ, 3 м/с66%1020 гПаясно
10:00+22ЮВ, 3 м/с57%1020 гПаясно
11:00+24ЮВ, 4 м/с50%1019 гПаясно
12:00+26ЮВ, 5 м/с43%1019 гПаясно
13:00+27ЮВ, 4 м/с42%1018 гПаясно
14:00+28ЮВ, 4 м/с40%1018 гПаясно
15:00+28ЮВ, 5 м/с35%1017 гПаясно
16:00+28ЮВ, 5 м/с34%1016 гПаясно
17:00+28ЮВ, 4 м/с36%1016 гПаясно
18:00+27ЮВ, 4 м/с42%1016 гПаясно
19:00+26ЮВ, 5 м/с46%1016 гПаясно
20:00+24ЮВ, 4 м/с50%1016 гПаясно
21:00+22ЮВ, 3 м/с58%1016 гПаясно
22:00+20ЮВ, 3 м/с69%1016 гПаясно
23:00+19В, 3 м/с74%1016 гПамалооблачно
22 августа
00:00+19ЮВ, 3 м/с73%1016 гПаоблачно
01:00+19ЮВ, 3 м/с76%1016 гПас прояснениями
02:00+18ЮВ, 3 м/с81%1015 гПас прояснениями
03:00+18ЮВ, 3 м/с85%1015 гПас прояснениями
04:00+18ЮВ, 3 м/с85%1015 гПаоблачно
05:00+18ЮВ, 3 м/с83%1015 гПаоблачно
06:00+18ЮВ, 3 м/с83%1015 гПаоблачносл. дождь
07:00+18ЮВ, 3 м/с83%1015 гПаоблачнодождь
08:00+19ЮВ, 4 м/с81%1015 гПаоблачнодождь
09:00+20ЮВ, 3 м/с78%1015 гПаоблачнодождь
10:00+21ЮВ, 3 м/с73%1015 гПаоблачно
11:00+23ЮВ, 4 м/с55%1014 гПаоблачно
12:00+24ЮВ, 4 м/с55%1014 гПаоблачно
13:00+26ЮВ, 4 м/с50%1014 гПаоблачно
14:00+27ЮВ, 5 м/с42%1013 гПаоблачно
15:00+28ЮВ, 5 м/с36%1012 гПаоблачно
16:00+28ЮВ, 5 м/с37%1012 гПаоблачно
17:00+27ЮВ, 5 м/с39%1012 гПаоблачно
18:00+26ЮВ, 5 м/с42%1012 гПаоблачно
19:00+24ЮВ, 4 м/с46%1012 гПаоблачно
20:00+22ЮВ, 3 м/с52%1012 гПаоблачно
21:00+20В, 2 м/с66%1011 гПаоблачно
22:00+19В, 3 м/с73%1011 гПаоблачно
23:00+19В, 3 м/с67%1011 гПаоблачно
23 августа
00:00+18В, 3 м/с71%1010 гПаоблачно
01:00+18В, 2 м/с75%1009 гПаоблачно
02:00+17В, 3 м/с79%1009 гПаоблачно
03:00+17В, 3 м/с79%1008 гПаоблачно